sensor_id;sensor_type;location;lat;lon;timestamp;P1;durP1;ratioP1;P2;durP2;ratioP2
74074;SDS011;62428;51.412;5.432;2022-10-17T00:01:08;13.70;;;7.20;;
74074;SDS011;62428;51.412;5.432;2022-10-17T00:03:34;11.43;;;7.10;;
74074;SDS011;62428;51.412;5.432;2022-10-17T00:06:04;10.65;;;6.72;;
74074;SDS011;62428;51.412;5.432;2022-10-17T00:08:34;12.95;;;6.70;;
74074;SDS011;62428;51.412;5.432;2022-10-17T00:11:01;10.75;;;6.80;;
74074;SDS011;62428;51.412;5.432;2022-10-17T00:13:30;15.10;;;6.63;;
74074;SDS011;62428;51.412;5.432;2022-10-17T00:15:55;9.88;;;6.65;;
74074;SDS011;62428;51.412;5.432;2022-10-17T00:18:22;15.82;;;6.72;;
74074;SDS011;62428;51.412;5.432;2022-10-17T00:20:47;11.30;;;6.53;;
74074;SDS011;62428;51.412;5.432;2022-10-17T00:23:13;10.48;;;7.22;;
74074;SDS011;62428;51.412;5.432;2022-10-17T00:25:38;12.17;;;6.50;;
74074;SDS011;62428;51.412;5.432;2022-10-17T00:28:04;10.52;;;6.72;;
74074;SDS011;62428;51.412;5.432;2022-10-17T00:30:30;11.00;;;7.10;;
74074;SDS011;62428;51.412;5.432;2022-10-17T00:32:56;11.63;;;7.45;;
74074;SDS011;62428;51.412;5.432;2022-10-17T00:35:22;13.43;;;7.60;;
74074;SDS011;62428;51.412;5.432;2022-10-17T00:37:47;9.77;;;7.40;;
74074;SDS011;62428;51.412;5.432;2022-10-17T00:40:12;13.93;;;7.33;;
74074;SDS011;62428;51.412;5.432;2022-10-17T00:42:38;15.40;;;7.32;;
74074;SDS011;62428;51.412;5.432;2022-10-17T00:45:05;11.15;;;7.65;;
74074;SDS011;62428;51.412;5.432;2022-10-17T00:47:36;10.87;;;7.20;;
74074;SDS011;62428;51.412;5.432;2022-10-17T00:50:03;12.07;;;7.97;;
74074;SDS011;62428;51.412;5.432;2022-10-17T00:52:30;11.70;;;7.70;;
74074;SDS011;62428;51.412;5.432;2022-10-17T00:54:57;11.07;;;7.33;;
74074;SDS011;62428;51.412;5.432;2022-10-17T00:57:27;13.90;;;7.22;;
74074;SDS011;62428;51.412;5.432;2022-10-17T00:59:55;14.82;;;8.27;;
74074;SDS011;62428;51.412;5.432;2022-10-17T01:02:23;11.30;;;7.50;;
74074;SDS011;62428;51.412;5.432;2022-10-17T01:04:49;11.63;;;7.87;;
74074;SDS011;62428;51.412;5.432;2022-10-17T01:07:18;16.73;;;7.85;;
74074;SDS011;62428;51.412;5.432;2022-10-17T01:09:44;13.60;;;7.87;;
74074;SDS011;62428;51.412;5.432;2022-10-17T01:12:14;12.93;;;7.93;;
74074;SDS011;62428;51.412;5.432;2022-10-17T01:34:31;14.32;;;8.40;;
74074;SDS011;62428;51.412;5.432;2022-10-17T01:39:52;18.17;;;9.63;;
74074;SDS011;62428;51.412;5.432;2022-10-17T01:42:25;18.45;;;9.63;;
74074;SDS011;62428;51.412;5.432;2022-10-17T01:44:58;15.38;;;8.55;;
74074;SDS011;62428;51.412;5.432;2022-10-17T01:47:33;14.85;;;9.43;;
74074;SDS011;62428;51.412;5.432;2022-10-17T01:50:03;13.50;;;9.50;;
74074;SDS011;62428;51.412;5.432;2022-10-17T01:52:37;16.80;;;9.30;;
74074;SDS011;62428;51.412;5.432;2022-10-17T01:55:11;17.90;;;9.60;;
74074;SDS011;62428;51.412;5.432;2022-10-17T01:57:41;14.23;;;8.55;;
74074;SDS011;62428;51.412;5.432;2022-10-17T02:00:16;19.42;;;8.88;;
74074;SDS011;62428;51.412;5.432;2022-10-17T02:02:45;14.63;;;8.90;;
74074;SDS011;62428;51.412;5.432;2022-10-17T02:05:14;20.80;;;9.40;;
74074;SDS011;62428;51.412;5.432;2022-10-17T02:07:42;13.93;;;8.87;;
74074;SDS011;62428;51.412;5.432;2022-10-17T02:10:09;16.38;;;8.60;;
74074;SDS011;62428;51.412;5.432;2022-10-17T02:12:58;12.30;;;8.17;;
74074;SDS011;62428;51.412;5.432;2022-10-17T02:15:36;13.68;;;8.48;;
74074;SDS011;62428;51.412;5.432;2022-10-17T02:21:09;15.57;;;9.27;;
74074;SDS011;62428;51.412;5.432;2022-10-17T02:23:52;11.35;;;7.93;;
74074;SDS011;62428;51.412;5.432;2022-10-17T02:32:22;18.60;;;8.05;;
74074;SDS011;62428;51.412;5.432;2022-10-17T02:34:53;14.82;;;8.48;;
74074;SDS011;62428;51.412;5.432;2022-10-17T02:37:22;14.82;;;8.25;;
74074;SDS011;62428;51.412;5.432;2022-10-17T02:39:51;18.00;;;8.80;;
74074;SDS011;62428;51.412;5.432;2022-10-17T02:42:20;13.35;;;8.00;;
74074;SDS011;62428;51.412;5.432;2022-10-17T02:44:48;12.32;;;7.75;;
74074;SDS011;62428;51.412;5.432;2022-10-17T02:49:50;12.85;;;7.57;;
74074;SDS011;62428;51.412;5.432;2022-10-17T03:00:10;11.23;;;7.57;;
74074;SDS011;62428;51.412;5.432;2022-10-17T03:02:38;11.95;;;7.72;;
74074;SDS011;62428;51.412;5.432;2022-10-17T03:05:05;11.45;;;7.90;;
74074;SDS011;62428;51.412;5.432;2022-10-17T03:07:32;12.32;;;6.85;;
74074;SDS011;62428;51.412;5.432;2022-10-17T03:09:58;10.23;;;7.53;;
74074;SDS011;62428;51.412;5.432;2022-10-17T03:12:23;11.90;;;8.13;;
74074;SDS011;62428;51.412;5.432;2022-10-17T03:14:48;11.97;;;7.43;;
74074;SDS011;62428;51.412;5.432;2022-10-17T03:17:14;12.87;;;7.33;;
74074;SDS011;62428;51.412;5.432;2022-10-17T03:19:39;16.75;;;7.90;;
74074;SDS011;62428;51.412;5.432;2022-10-17T03:22:04;13.07;;;8.07;;
74074;SDS011;62428;51.412;5.432;2022-10-17T03:24:29;15.30;;;8.77;;
74074;SDS011;62428;51.412;5.432;2022-10-17T03:26:55;20.03;;;8.10;;
74074;SDS011;62428;51.412;5.432;2022-10-17T03:29:20;13.77;;;7.77;;
74074;SDS011;62428;51.412;5.432;2022-10-17T03:31:46;14.87;;;8.53;;
74074;SDS011;62428;51.412;5.432;2022-10-17T03:34:11;16.03;;;8.47;;
74074;SDS011;62428;51.412;5.432;2022-10-17T03:36:36;14.98;;;8.70;;
74074;SDS011;62428;51.412;5.432;2022-10-17T03:39:02;14.37;;;8.93;;
74074;SDS011;62428;51.412;5.432;2022-10-17T03:41:27;14.40;;;8.33;;
74074;SDS011;62428;51.412;5.432;2022-10-17T03:43:52;14.83;;;8.87;;
74074;SDS011;62428;51.412;5.432;2022-10-17T03:46:18;13.30;;;8.80;;
74074;SDS011;62428;51.412;5.432;2022-10-17T03:48:43;14.03;;;8.77;;
74074;SDS011;62428;51.412;5.432;2022-10-17T03:51:10;13.65;;;7.43;;
74074;SDS011;62428;51.412;5.432;2022-10-17T03:53:36;13.30;;;8.15;;
74074;SDS011;62428;51.412;5.432;2022-10-17T03:56:08;13.30;;;8.32;;
74074;SDS011;62428;51.412;5.432;2022-10-17T03:58:36;15.45;;;8.95;;
74074;SDS011;62428;51.412;5.432;2022-10-17T04:01:05;13.10;;;8.27;;
74074;SDS011;62428;51.412;5.432;2022-10-17T04:03:31;16.83;;;8.38;;
74074;SDS011;62428;51.412;5.432;2022-10-17T04:05:57;15.30;;;8.03;;
74074;SDS011;62428;51.412;5.432;2022-10-17T04:08:26;18.83;;;8.98;;
74074;SDS011;62428;51.412;5.432;2022-10-17T04:10:52;14.97;;;8.20;;
74074;SDS011;62428;51.412;5.432;2022-10-17T04:13:17;19.40;;;9.33;;
74074;SDS011;62428;51.412;5.432;2022-10-17T04:15:52;15.48;;;9.48;;
74074;SDS011;62428;51.412;5.432;2022-10-17T04:18:18;13.57;;;8.67;;
74074;SDS011;62428;51.412;5.432;2022-10-17T04:20:44;13.00;;;8.30;;
74074;SDS011;62428;51.412;5.432;2022-10-17T04:23:09;13.93;;;8.18;;
74074;SDS011;62428;51.412;5.432;2022-10-17T04:25:34;17.40;;;8.20;;
74074;SDS011;62428;51.412;5.432;2022-10-17T04:27:59;15.30;;;8.33;;
74074;SDS011;62428;51.412;5.432;2022-10-17T04:30:25;17.50;;;8.97;;
74074;SDS011;62428;51.412;5.432;2022-10-17T04:32:50;13.53;;;7.70;;
74074;SDS011;62428;51.412;5.432;2022-10-17T04:35:15;16.20;;;7.83;;
74074;SDS011;62428;51.412;5.432;2022-10-17T04:37:41;13.73;;;7.93;;
74074;SDS011;62428;51.412;5.432;2022-10-17T04:40:06;15.53;;;8.10;;
74074;SDS011;62428;51.412;5.432;2022-10-17T04:42:32;12.40;;;7.95;;
74074;SDS011;62428;51.412;5.432;2022-10-17T04:44:57;14.33;;;7.53;;
74074;SDS011;62428;51.412;5.432;2022-10-17T04:47:23;15.20;;;7.57;;
74074;SDS011;62428;51.412;5.432;2022-10-17T04:49:48;11.90;;;7.43;;
74074;SDS011;62428;51.412;5.432;2022-10-17T04:52:13;10.18;;;7.53;;
74074;SDS011;62428;51.412;5.432;2022-10-17T04:54:39;13.03;;;7.50;;
74074;SDS011;62428;51.412;5.432;2022-10-17T04:57:04;14.67;;;7.50;;
74074;SDS011;62428;51.412;5.432;2022-10-17T04:59:29;12.77;;;7.33;;
74074;SDS011;62428;51.412;5.432;2022-10-17T05:01:55;19.57;;;7.13;;
74074;SDS011;62428;51.412;5.432;2022-10-17T05:04:20;14.10;;;7.20;;
74074;SDS011;62428;51.412;5.432;2022-10-17T05:06:46;13.30;;;7.15;;
74074;SDS011;62428;51.412;5.432;2022-10-17T05:09:11;10.37;;;6.80;;
74074;SDS011;62428;51.412;5.432;2022-10-17T05:11:36;15.10;;;7.37;;
74074;SDS011;62428;51.412;5.432;2022-10-17T05:14:02;11.53;;;7.57;;
74074;SDS011;62428;51.412;5.432;2022-10-17T05:16:27;15.30;;;8.00;;
74074;SDS011;62428;51.412;5.432;2022-10-17T05:18:54;21.73;;;7.53;;
74074;SDS011;62428;51.412;5.432;2022-10-17T05:21:21;11.60;;;8.02;;
74074;SDS011;62428;51.412;5.432;2022-10-17T05:23:48;12.10;;;7.20;;
74074;SDS011;62428;51.412;5.432;2022-10-17T05:26:13;15.30;;;7.93;;
74074;SDS011;62428;51.412;5.432;2022-10-17T05:28:39;11.97;;;7.43;;
74074;SDS011;62428;51.412;5.432;2022-10-17T05:31:05;14.90;;;7.22;;
74074;SDS011;62428;51.412;5.432;2022-10-17T05:33:33;11.70;;;7.15;;
74074;SDS011;62428;51.412;5.432;2022-10-17T05:35:59;45.87;;;7.57;;
74074;SDS011;62428;51.412;5.432;2022-10-17T05:38:25;31.65;;;9.25;;
74074;SDS011;62428;51.412;5.432;2022-10-17T05:40:51;47.20;;;26.65;;
74074;SDS011;62428;51.412;5.432;2022-10-17T05:43:21;52.10;;;18.57;;
74074;SDS011;62428;51.412;5.432;2022-10-17T05:45:46;271.33;;;250.80;;
74074;SDS011;62428;51.412;5.432;2022-10-17T05:48:12;90.10;;;72.77;;
74074;SDS011;62428;51.412;5.432;2022-10-17T05:50:37;76.17;;;39.90;;
74074;SDS011;62428;51.412;5.432;2022-10-17T05:53:02;337.33;;;313.03;;
74074;SDS011;62428;51.412;5.432;2022-10-17T05:55:27;487.37;;;450.50;;
74074;SDS011;62428;51.412;5.432;2022-10-17T05:57:53;779.83;;;720.20;;
74074;SDS011;62428;51.412;5.432;2022-10-17T06:00:19;824.57;;;760.50;;
74074;SDS011;62428;51.412;5.432;2022-10-17T06:02:45;784.63;;;721.25;;
74074;SDS011;62428;51.412;5.432;2022-10-17T06:05:11;426.67;;;397.90;;
74074;SDS011;62428;51.412;5.432;2022-10-17T06:07:37;451.45;;;420.77;;
74074;SDS011;62428;51.412;5.432;2022-10-17T06:10:02;400.10;;;373.93;;
74074;SDS011;62428;51.412;5.432;2022-10-17T06:12:28;475.90;;;443.57;;
74074;SDS011;62428;51.412;5.432;2022-10-17T06:14:53;237.35;;;218.98;;
74074;SDS011;62428;51.412;5.432;2022-10-17T06:17:19;131.93;;;119.37;;
74074;SDS011;62428;51.412;5.432;2022-10-17T06:19:44;53.43;;;46.13;;
74074;SDS011;62428;51.412;5.432;2022-10-17T06:22:10;73.93;;;66.23;;
74074;SDS011;62428;51.412;5.432;2022-10-17T06:24:35;128.43;;;119.03;;
74074;SDS011;62428;51.412;5.432;2022-10-17T06:27:00;227.33;;;209.60;;
74074;SDS011;62428;51.412;5.432;2022-10-17T06:29:26;216.00;;;199.07;;
74074;SDS011;62428;51.412;5.432;2022-10-17T06:31:51;154.03;;;140.93;;
74074;SDS011;62428;51.412;5.432;2022-10-17T06:34:17;132.10;;;120.13;;
74074;SDS011;62428;51.412;5.432;2022-10-17T06:36:42;36.53;;;26.17;;
74074;SDS011;62428;51.412;5.432;2022-10-17T06:39:08;40.03;;;25.80;;
74074;SDS011;62428;51.412;5.432;2022-10-17T06:41:33;39.83;;;17.90;;
74074;SDS011;62428;51.412;5.432;2022-10-17T06:43:59;10.23;;;7.53;;
74074;SDS011;62428;51.412;5.432;2022-10-17T06:46:24;13.90;;;7.50;;
74074;SDS011;62428;51.412;5.432;2022-10-17T06:48:51;15.27;;;7.57;;
74074;SDS011;62428;51.412;5.432;2022-10-17T06:51:16;10.88;;;7.22;;
74074;SDS011;62428;51.412;5.432;2022-10-17T06:53:42;16.77;;;7.60;;
74074;SDS011;62428;51.412;5.432;2022-10-17T06:56:07;11.90;;;7.40;;
74074;SDS011;62428;51.412;5.432;2022-10-17T06:58:34;11.00;;;7.05;;
74074;SDS011;62428;51.412;5.432;2022-10-17T07:01:05;13.38;;;7.30;;
74074;SDS011;62428;51.412;5.432;2022-10-17T07:03:33;16.10;;;7.85;;
74074;SDS011;62428;51.412;5.432;2022-10-17T07:05:58;13.57;;;7.50;;
74074;SDS011;62428;51.412;5.432;2022-10-17T07:08:24;11.97;;;6.83;;
74074;SDS011;62428;51.412;5.432;2022-10-17T07:10:50;15.55;;;7.95;;
74074;SDS011;62428;51.412;5.432;2022-10-17T07:13:16;15.38;;;7.55;;
74074;SDS011;62428;51.412;5.432;2022-10-17T07:15:42;16.73;;;7.20;;
74074;SDS011;62428;51.412;5.432;2022-10-17T07:18:08;14.15;;;7.07;;
74074;SDS011;62428;51.412;5.432;2022-10-17T07:20:33;11.33;;;6.27;;
74074;SDS011;62428;51.412;5.432;2022-10-17T07:22:59;11.10;;;6.50;;
74074;SDS011;62428;51.412;5.432;2022-10-17T07:25:24;13.23;;;6.80;;
74074;SDS011;62428;51.412;5.432;2022-10-17T07:27:50;16.42;;;7.10;;
74074;SDS011;62428;51.412;5.432;2022-10-17T07:30:17;9.77;;;6.63;;
74074;SDS011;62428;51.412;5.432;2022-10-17T07:32:42;12.03;;;6.97;;
74074;SDS011;62428;51.412;5.432;2022-10-17T07:35:09;13.80;;;6.53;;
74074;SDS011;62428;51.412;5.432;2022-10-17T07:37:35;14.25;;;6.97;;
74074;SDS011;62428;51.412;5.432;2022-10-17T07:40:01;10.27;;;6.83;;
74074;SDS011;62428;51.412;5.432;2022-10-17T07:42:27;12.98;;;6.30;;
74074;SDS011;62428;51.412;5.432;2022-10-17T07:44:52;10.23;;;6.10;;
74074;SDS011;62428;51.412;5.432;2022-10-17T07:47:18;11.30;;;5.80;;
74074;SDS011;62428;51.412;5.432;2022-10-17T07:49:44;12.35;;;6.30;;
74074;SDS011;62428;51.412;5.432;2022-10-17T07:52:10;9.80;;;5.87;;
74074;SDS011;62428;51.412;5.432;2022-10-17T07:54:36;13.93;;;5.82;;
74074;SDS011;62428;51.412;5.432;2022-10-17T07:57:02;11.03;;;5.53;;
74074;SDS011;62428;51.412;5.432;2022-10-17T07:59:28;9.23;;;5.28;;
74074;SDS011;62428;51.412;5.432;2022-10-17T08:01:56;11.30;;;5.33;;
74074;SDS011;62428;51.412;5.432;2022-10-17T08:04:23;10.07;;;5.13;;
74074;SDS011;62428;51.412;5.432;2022-10-17T08:06:48;13.13;;;5.47;;
74074;SDS011;62428;51.412;5.432;2022-10-17T08:09:14;12.60;;;5.60;;
74074;SDS011;62428;51.412;5.432;2022-10-17T08:11:39;12.60;;;5.60;;
74074;SDS011;62428;51.412;5.432;2022-10-17T08:14:07;13.07;;;5.43;;
74074;SDS011;62428;51.412;5.432;2022-10-17T08:16:33;15.98;;;5.65;;
74074;SDS011;62428;51.412;5.432;2022-10-17T08:18:59;10.40;;;4.97;;
74074;SDS011;62428;51.412;5.432;2022-10-17T08:21:24;13.50;;;5.32;;
74074;SDS011;62428;51.412;5.432;2022-10-17T08:23:50;8.87;;;4.90;;
74074;SDS011;62428;51.412;5.432;2022-10-17T08:26:15;9.03;;;4.93;;
74074;SDS011;62428;51.412;5.432;2022-10-17T08:28:41;8.13;;;4.90;;
74074;SDS011;62428;51.412;5.432;2022-10-17T08:31:08;11.87;;;5.23;;
74074;SDS011;62428;51.412;5.432;2022-10-17T08:33:35;11.98;;;5.05;;
74074;SDS011;62428;51.412;5.432;2022-10-17T08:36:01;9.23;;;4.97;;
74074;SDS011;62428;51.412;5.432;2022-10-17T08:38:28;12.35;;;5.30;;
74074;SDS011;62428;51.412;5.432;2022-10-17T08:40:56;12.38;;;4.45;;
74074;SDS011;62428;51.412;5.432;2022-10-17T08:46:15;12.73;;;5.40;;
74074;SDS011;62428;51.412;5.432;2022-10-17T08:48:42;13.63;;;5.38;;
74074;SDS011;62428;51.412;5.432;2022-10-17T08:51:12;7.82;;;4.75;;
74074;SDS011;62428;51.412;5.432;2022-10-17T08:53:44;12.98;;;5.45;;
74074;SDS011;62428;51.412;5.432;2022-10-17T08:56:32;7.87;;;5.17;;
74074;SDS011;62428;51.412;5.432;2022-10-17T08:59:03;11.35;;;5.68;;
74074;SDS011;62428;51.412;5.432;2022-10-17T09:01:46;13.32;;;6.05;;
74074;SDS011;62428;51.412;5.432;2022-10-17T09:10:09;18.40;;;5.73;;
74074;SDS011;62428;51.412;5.432;2022-10-17T09:18:23;18.88;;;7.00;;
74074;SDS011;62428;51.412;5.432;2022-10-17T09:20:59;25.92;;;7.72;;
74074;SDS011;62428;51.412;5.432;2022-10-17T09:23:52;27.00;;;7.53;;
74074;SDS011;62428;51.412;5.432;2022-10-17T09:26:18;17.77;;;6.93;;
74074;SDS011;62428;51.412;5.432;2022-10-17T09:28:44;18.88;;;7.63;;
74074;SDS011;62428;51.412;5.432;2022-10-17T09:31:22;13.77;;;7.00;;
74074;SDS011;62428;51.412;5.432;2022-10-17T09:33:55;13.30;;;6.45;;
74074;SDS011;62428;51.412;5.432;2022-10-17T09:36:37;17.08;;;6.63;;
74074;SDS011;62428;51.412;5.432;2022-10-17T09:39:04;13.20;;;6.25;;
74074;SDS011;62428;51.412;5.432;2022-10-17T09:41:40;15.15;;;6.72;;
74074;SDS011;62428;51.412;5.432;2022-10-17T09:44:19;15.20;;;7.07;;
74074;SDS011;62428;51.412;5.432;2022-10-17T09:47:01;15.00;;;6.32;;
74074;SDS011;62428;51.412;5.432;2022-10-17T09:49:37;9.63;;;6.45;;
74074;SDS011;62428;51.412;5.432;2022-10-17T09:52:05;14.73;;;6.90;;
74074;SDS011;62428;51.412;5.432;2022-10-17T09:54:40;12.40;;;6.95;;
74074;SDS011;62428;51.412;5.432;2022-10-17T09:57:06;15.37;;;6.80;;
74074;SDS011;62428;51.412;5.432;2022-10-17T09:59:34;14.70;;;6.90;;
74074;SDS011;62428;51.412;5.432;2022-10-17T10:02:12;16.00;;;6.85;;
74074;SDS011;62428;51.412;5.432;2022-10-17T10:05:21;15.57;;;7.07;;
74074;SDS011;62428;51.412;5.432;2022-10-17T10:07:38;17.58;;;7.25;;
74074;SDS011;62428;51.412;5.432;2022-10-17T10:10:07;10.63;;;6.90;;
74074;SDS011;62428;51.412;5.432;2022-10-17T10:15:39;15.37;;;7.90;;
74074;SDS011;62428;51.412;5.432;2022-10-17T10:21:05;16.13;;;7.70;;
74074;SDS011;62428;51.412;5.432;2022-10-17T10:23:36;15.60;;;8.77;;
74074;SDS011;62428;51.412;5.432;2022-10-17T10:26:25;22.85;;;8.80;;
74074;SDS011;62428;51.412;5.432;2022-10-17T10:29:04;14.50;;;9.07;;
74074;SDS011;62428;51.412;5.432;2022-10-17T10:31:42;18.23;;;9.30;;
74074;SDS011;62428;51.412;5.432;2022-10-17T10:36:47;17.38;;;9.43;;
74074;SDS011;62428;51.412;5.432;2022-10-17T10:42:00;17.48;;;10.32;;
74074;SDS011;62428;51.412;5.432;2022-10-17T10:44:27;17.85;;;10.65;;
74074;SDS011;62428;51.412;5.432;2022-10-17T10:50:08;18.17;;;9.70;;
74074;SDS011;62428;51.412;5.432;2022-10-17T10:53:08;20.88;;;9.85;;
74074;SDS011;62428;51.412;5.432;2022-10-17T10:56:00;22.33;;;9.38;;
74074;SDS011;62428;51.412;5.432;2022-10-17T11:01:28;21.17;;;10.30;;
74074;SDS011;62428;51.412;5.432;2022-10-17T11:06:43;19.30;;;10.80;;
74074;SDS011;62428;51.412;5.432;2022-10-17T11:09:29;23.70;;;11.27;;
74074;SDS011;62428;51.412;5.432;2022-10-17T11:12:12;24.83;;;10.77;;
74074;SDS011;62428;51.412;5.432;2022-10-17T11:14:48;25.73;;;11.67;;
74074;SDS011;62428;51.412;5.432;2022-10-17T11:17:27;28.83;;;11.55;;
74074;SDS011;62428;51.412;5.432;2022-10-17T11:22:43;26.55;;;12.20;;
74074;SDS011;62428;51.412;5.432;2022-10-17T11:28:00;21.97;;;11.57;;
74074;SDS011;62428;51.412;5.432;2022-10-17T11:30:27;19.45;;;11.82;;
74074;SDS011;62428;51.412;5.432;2022-10-17T11:33:03;23.55;;;12.88;;
74074;SDS011;62428;51.412;5.432;2022-10-17T11:35:32;24.15;;;12.20;;
74074;SDS011;62428;51.412;5.432;2022-10-17T11:40:30;22.57;;;12.07;;
74074;SDS011;62428;51.412;5.432;2022-10-17T11:43:05;22.20;;;13.37;;
74074;SDS011;62428;51.412;5.432;2022-10-17T11:45:43;23.95;;;12.55;;
74074;SDS011;62428;51.412;5.432;2022-10-17T11:48:15;24.40;;;13.35;;
74074;SDS011;62428;51.412;5.432;2022-10-17T11:50:47;25.67;;;13.05;;
74074;SDS011;62428;51.412;5.432;2022-10-17T11:53:19;22.65;;;12.95;;
74074;SDS011;62428;51.412;5.432;2022-10-17T11:55:47;23.47;;;13.80;;
74074;SDS011;62428;51.412;5.432;2022-10-17T12:03:59;32.15;;;12.70;;
74074;SDS011;62428;51.412;5.432;2022-10-17T12:06:41;23.05;;;13.27;;
74074;SDS011;62428;51.412;5.432;2022-10-17T12:11:49;23.65;;;12.13;;
74074;SDS011;62428;51.412;5.432;2022-10-17T12:22:50;27.43;;;12.03;;
74074;SDS011;62428;51.412;5.432;2022-10-17T12:25:27;28.13;;;12.77;;
74074;SDS011;62428;51.412;5.432;2022-10-17T12:28:12;25.15;;;12.10;;
74074;SDS011;62428;51.412;5.432;2022-10-17T12:30:48;27.20;;;12.55;;
74074;SDS011;62428;51.412;5.432;2022-10-17T12:33:18;24.95;;;13.45;;
74074;SDS011;62428;51.412;5.432;2022-10-17T12:35:47;27.67;;;12.77;;
74074;SDS011;62428;51.412;5.432;2022-10-17T12:38:35;26.10;;;12.98;;
74074;SDS011;62428;51.412;5.432;2022-10-17T12:41:01;23.40;;;14.07;;
74074;SDS011;62428;51.412;5.432;2022-10-17T12:45:59;28.47;;;14.10;;
74074;SDS011;62428;51.412;5.432;2022-10-17T12:53:53;29.60;;;13.85;;
74074;SDS011;62428;51.412;5.432;2022-10-17T12:56:34;26.23;;;14.27;;
74074;SDS011;62428;51.412;5.432;2022-10-17T12:59:05;24.90;;;14.05;;
74074;SDS011;62428;51.412;5.432;2022-10-17T13:01:35;28.83;;;14.80;;
74074;SDS011;62428;51.412;5.432;2022-10-17T13:04:03;25.92;;;14.15;;
74074;SDS011;62428;51.412;5.432;2022-10-17T13:06:31;27.15;;;14.15;;
74074;SDS011;62428;51.412;5.432;2022-10-17T13:09:12;19.57;;;12.77;;
74074;SDS011;62428;51.412;5.432;2022-10-17T13:11:44;23.45;;;12.43;;
74074;SDS011;62428;51.412;5.432;2022-10-17T13:14:12;26.83;;;11.93;;
74074;SDS011;62428;51.412;5.432;2022-10-17T13:16:40;19.40;;;10.60;;
74074;SDS011;62428;51.412;5.432;2022-10-17T13:19:17;16.95;;;10.43;;
74074;SDS011;62428;51.412;5.432;2022-10-17T13:21:54;18.77;;;10.50;;
74074;SDS011;62428;51.412;5.432;2022-10-17T13:26:53;19.08;;;10.82;;
74074;SDS011;62428;51.412;5.432;2022-10-17T13:29:18;20.00;;;11.40;;
74074;SDS011;62428;51.412;5.432;2022-10-17T13:31:49;19.43;;;10.80;;
74074;SDS011;62428;51.412;5.432;2022-10-17T13:34:17;21.73;;;11.27;;
74074;SDS011;62428;51.412;5.432;2022-10-17T13:36:49;18.27;;;11.45;;
74074;SDS011;62428;51.412;5.432;2022-10-17T13:39:19;22.10;;;10.85;;
74074;SDS011;62428;51.412;5.432;2022-10-17T13:41:46;21.70;;;11.55;;
74074;SDS011;62428;51.412;5.432;2022-10-17T13:44:14;17.27;;;11.03;;
74074;SDS011;62428;51.412;5.432;2022-10-17T13:46:43;21.73;;;11.18;;
74074;SDS011;62428;51.412;5.432;2022-10-17T13:51:56;21.63;;;11.48;;
74074;SDS011;62428;51.412;5.432;2022-10-17T13:57:19;25.80;;;11.77;;
74074;SDS011;62428;51.412;5.432;2022-10-17T14:00:03;18.70;;;11.20;;
74074;SDS011;62428;51.412;5.432;2022-10-17T14:02:33;17.13;;;11.23;;
74074;SDS011;62428;51.412;5.432;2022-10-17T14:05:13;26.08;;;12.30;;
74074;SDS011;62428;51.412;5.432;2022-10-17T14:07:44;27.23;;;12.55;;
74074;SDS011;62428;51.412;5.432;2022-10-17T14:10:32;19.77;;;11.40;;
74074;SDS011;62428;51.412;5.432;2022-10-17T14:12:59;21.48;;;11.80;;
74074;SDS011;62428;51.412;5.432;2022-10-17T14:15:31;25.42;;;12.32;;
74074;SDS011;62428;51.412;5.432;2022-10-17T14:18:00;19.65;;;12.82;;
74074;SDS011;62428;51.412;5.432;2022-10-17T14:20:27;22.90;;;12.18;;
74074;SDS011;62428;51.412;5.432;2022-10-17T14:22:53;22.70;;;12.57;;
74074;SDS011;62428;51.412;5.432;2022-10-17T14:25:27;25.38;;;13.35;;
74074;SDS011;62428;51.412;5.432;2022-10-17T14:27:59;24.58;;;11.07;;
74074;SDS011;62428;51.412;5.432;2022-10-17T14:30:34;20.27;;;11.63;;
74074;SDS011;62428;51.412;5.432;2022-10-17T14:33:02;22.95;;;11.85;;
74074;SDS011;62428;51.412;5.432;2022-10-17T14:35:31;21.37;;;11.47;;
74074;SDS011;62428;51.412;5.432;2022-10-17T14:37:58;22.13;;;12.02;;
74074;SDS011;62428;51.412;5.432;2022-10-17T14:40:26;18.92;;;11.77;;
74074;SDS011;62428;51.412;5.432;2022-10-17T14:42:54;22.05;;;11.15;;
74074;SDS011;62428;51.412;5.432;2022-10-17T14:45:25;24.23;;;12.13;;
74074;SDS011;62428;51.412;5.432;2022-10-17T14:47:53;21.00;;;11.80;;
74074;SDS011;62428;51.412;5.432;2022-10-17T14:50:25;20.05;;;11.30;;
74074;SDS011;62428;51.412;5.432;2022-10-17T14:52:59;22.73;;;11.15;;
74074;SDS011;62428;51.412;5.432;2022-10-17T14:55:25;22.35;;;11.40;;
74074;SDS011;62428;51.412;5.432;2022-10-17T14:57:52;21.67;;;12.13;;
74074;SDS011;62428;51.412;5.432;2022-10-17T15:00:19;22.88;;;11.50;;
74074;SDS011;62428;51.412;5.432;2022-10-17T15:02:46;38.28;;;11.90;;
74074;SDS011;62428;51.412;5.432;2022-10-17T15:05:13;27.95;;;11.93;;
74074;SDS011;62428;51.412;5.432;2022-10-17T15:07:39;24.57;;;11.40;;
74074;SDS011;62428;51.412;5.432;2022-10-17T15:10:05;21.80;;;11.05;;
74074;SDS011;62428;51.412;5.432;2022-10-17T15:12:47;25.58;;;11.65;;
74074;SDS011;62428;51.412;5.432;2022-10-17T15:15:12;22.37;;;12.03;;
74074;SDS011;62428;51.412;5.432;2022-10-17T15:17:37;31.23;;;11.67;;
74074;SDS011;62428;51.412;5.432;2022-10-17T15:20:05;27.87;;;11.37;;
74074;SDS011;62428;51.412;5.432;2022-10-17T15:22:38;23.70;;;11.60;;
74074;SDS011;62428;51.412;5.432;2022-10-17T15:25:04;25.20;;;11.70;;
74074;SDS011;62428;51.412;5.432;2022-10-17T15:27:30;24.60;;;11.63;;
74074;SDS011;62428;51.412;5.432;2022-10-17T15:29:56;21.60;;;11.43;;
74074;SDS011;62428;51.412;5.432;2022-10-17T15:32:22;26.07;;;12.20;;
74074;SDS011;62428;51.412;5.432;2022-10-17T15:34:48;29.00;;;11.68;;
74074;SDS011;62428;51.412;5.432;2022-10-17T15:37:21;19.83;;;11.00;;
74074;SDS011;62428;51.412;5.432;2022-10-17T15:39:49;17.98;;;10.50;;
74074;SDS011;62428;51.412;5.432;2022-10-17T15:42:18;20.90;;;11.15;;
74074;SDS011;62428;51.412;5.432;2022-10-17T15:44:45;19.85;;;10.95;;
74074;SDS011;62428;51.412;5.432;2022-10-17T15:49:57;18.88;;;10.50;;
74074;SDS011;62428;51.412;5.432;2022-10-17T15:52:23;20.77;;;11.13;;
74074;SDS011;62428;51.412;5.432;2022-10-17T15:54:49;25.45;;;11.35;;
74074;SDS011;62428;51.412;5.432;2022-10-17T15:57:28;24.13;;;10.50;;
74074;SDS011;62428;51.412;5.432;2022-10-17T15:59:56;25.63;;;10.95;;
74074;SDS011;62428;51.412;5.432;2022-10-17T16:02:23;19.33;;;10.98;;
74074;SDS011;62428;51.412;5.432;2022-10-17T16:04:48;24.13;;;11.20;;
74074;SDS011;62428;51.412;5.432;2022-10-17T16:07:15;18.70;;;10.25;;
74074;SDS011;62428;51.412;5.432;2022-10-17T16:09:42;25.83;;;10.60;;
74074;SDS011;62428;51.412;5.432;2022-10-17T16:12:11;22.60;;;11.35;;
74074;SDS011;62428;51.412;5.432;2022-10-17T16:14:41;18.80;;;10.83;;
74074;SDS011;62428;51.412;5.432;2022-10-17T16:17:08;21.80;;;11.70;;
74074;SDS011;62428;51.412;5.432;2022-10-17T16:19:39;22.43;;;11.23;;
74074;SDS011;62428;51.412;5.432;2022-10-17T16:22:04;17.23;;;10.93;;
74074;SDS011;62428;51.412;5.432;2022-10-17T16:24:30;20.57;;;10.80;;
74074;SDS011;62428;51.412;5.432;2022-10-17T16:26:56;24.75;;;10.77;;
74074;SDS011;62428;51.412;5.432;2022-10-17T16:29:21;29.47;;;11.07;;
74074;SDS011;62428;51.412;5.432;2022-10-17T16:31:47;32.10;;;10.80;;
74074;SDS011;62428;51.412;5.432;2022-10-17T16:34:12;26.97;;;11.20;;
74074;SDS011;62428;51.412;5.432;2022-10-17T16:36:39;31.65;;;10.80;;
74074;SDS011;62428;51.412;5.432;2022-10-17T16:39:05;22.77;;;10.30;;